Time;durP1;ratioP1;P1;durP2;ratioP2;P2;SDS_P1;SDS_P2;PMS_P1;PMS_P2;Temp;Humidity;BMP_temperature;BMP_pressure;BME280_temperature;BME280_humidity;BME280_pressure;Samples;Min_cycle;Max_cycle;Signal;HPM_P1;HPM_P2
2021/11/19 00:02:00;;;;;;;1999.90;999.90;;;3.20;99.90;;;;;;5118241;28;20039;-85
2021/11/19 00:04:28;;;;;;;1999.90;999.90;;;3.20;99.90;;;;;;5118692;28;20474;-83
2021/11/19 00:06:54;;;;;;;1999.90;999.90;;;3.20;99.90;;;;;;5119215;28;20024;-84
2021/11/19 00:09:21;;;;;;;1999.90;999.90;;;3.20;99.90;;;;;;5119709;28;20031;-84
2021/11/19 00:11:49;;;;;;;1999.90;999.90;;;3.10;99.90;;;;;;5120487;28;20462;-85
2021/11/19 00:14:16;;;;;;;1999.90;999.90;;;3.10;99.90;;;;;;5118456;28;20031;-85
2021/11/19 00:16:44;;;;;;;1999.90;999.90;;;3.10;99.90;;;;;;5119136;28;20115;-87
2021/11/19 00:19:11;;;;;;;1999.90;999.90;;;3.10;99.90;;;;;;5118931;28;20020;-84
2021/11/19 00:21:40;;;;;;;1999.90;999.90;;;3.10;99.90;;;;;;5119996;28;20106;-83
2021/11/19 00:24:06;;;;;;;1999.90;999.90;;;3.10;99.90;;;;;;5119322;28;20028;-84
2021/11/19 00:26:32;;;;;;;1999.90;999.90;;;3.10;99.90;;;;;;5118227;28;20119;-84
2021/11/19 00:28:59;;;;;;;1999.90;999.90;;;3.10;99.90;;;;;;5118039;28;20407;-84
2021/11/19 00:31:26;;;;;;;1999.90;999.90;;;3.10;99.90;;;;;;5116927;28;20498;-86
2021/11/19 00:33:55;;;;;;;1999.90;999.90;;;3.20;99.90;;;;;;5117610;28;20030;-85
2021/11/19 00:36:22;;;;;;;1999.90;999.90;;;3.20;99.90;;;;;;5117854;28;20019;-83
2021/11/19 00:38:50;;;;;;;1999.90;999.90;;;3.20;99.90;;;;;;5117565;28;20069;-86
2021/11/19 00:41:17;;;;;;;1999.90;999.90;;;3.20;99.90;;;;;;5117515;28;20027;-85
2021/11/19 00:43:44;;;;;;;1999.90;999.90;;;3.30;99.90;;;;;;5117651;27;20056;-84
2021/11/19 00:46:10;;;;;;;1999.90;999.90;;;3.40;99.90;;;;;;5118693;27;20073;-86
2021/11/19 00:48:37;;;;;;;1999.90;999.90;;;3.40;99.90;;;;;;5117502;28;20115;-85
2021/11/19 00:51:21;;;;;;;1999.90;999.90;;;3.40;99.90;;;;;;5118278;28;20032;-85
2021/11/19 00:53:51;;;;;;;1999.90;999.90;;;3.40;99.90;;;;;;5117250;28;20019;-85
2021/11/19 00:56:23;;;;;;;1999.90;999.90;;;3.50;99.90;;;;;;5117163;28;20027;-85
2021/11/19 00:58:51;;;;;;;1999.90;999.90;;;3.50;99.90;;;;;;5117301;28;20066;-85
2021/11/19 01:01:24;;;;;;;1999.90;999.90;;;3.70;99.90;;;;;;5117062;28;20104;-87
2021/11/19 01:03:50;;;;;;;1999.90;999.90;;;3.60;99.90;;;;;;5117463;28;20034;-84
2021/11/19 01:06:16;;;;;;;1999.90;999.90;;;3.60;99.90;;;;;;5116978;28;20043;-84
2021/11/19 01:08:42;;;;;;;1999.90;999.90;;;3.50;99.90;;;;;;5117206;28;20114;-84
2021/11/19 01:11:12;;;;;;;1999.90;999.90;;;3.60;99.90;;;;;;5117189;28;20152;-83
2021/11/19 01:13:42;;;;;;;1999.90;999.90;;;3.60;99.90;;;;;;5117031;28;20378;-83
2021/11/19 01:16:31;;;;;;;1999.90;999.90;;;3.60;99.90;;;;;;5117045;28;20386;-84
2021/11/19 01:19:01;;;;;;;1999.90;999.90;;;3.60;99.90;;;;;;5117145;28;20024;-84
2021/11/19 01:21:37;;;;;;;1999.90;999.90;;;3.60;99.90;;;;;;5117116;28;20023;-85
2021/11/19 01:24:03;;;;;;;1999.90;999.90;;;3.50;99.90;;;;;;5117456;28;20111;-85
2021/11/19 01:26:32;;;;;;;1999.90;999.90;;;3.60;99.90;;;;;;5118337;28;20032;-84
2021/11/19 01:29:03;;;;;;;1999.90;999.90;;;3.50;99.90;;;;;;5116888;28;20024;-84
2021/11/19 01:31:33;;;;;;;1999.90;999.90;;;3.50;99.90;;;;;;5116265;28;20077;-84
2021/11/19 01:34:00;;;;;;;1999.90;999.90;;;3.50;99.90;;;;;;5117849;28;20027;-85
2021/11/19 01:36:26;;;;;;;1999.90;999.90;;;3.60;99.90;;;;;;5116728;28;20031;-85
2021/11/19 01:38:52;;;;;;;1999.90;999.90;;;3.50;99.90;;;;;;5116445;28;20046;-84
2021/11/19 01:41:21;;;;;;;1999.90;999.90;;;3.50;99.90;;;;;;5116189;28;20470;-84
2021/11/19 01:43:49;;;;;;;1999.90;999.90;;;3.60;99.90;;;;;;5116586;28;20069;-84
2021/11/19 01:46:21;;;;;;;1999.90;999.90;;;3.70;99.90;;;;;;5116961;28;20020;-85
2021/11/19 01:48:49;;;;;;;1999.90;999.90;;;3.50;99.90;;;;;;5116884;28;20023;-85
2021/11/19 01:51:20;;;;;;;1999.90;999.90;;;3.50;99.90;;;;;;5117793;28;20031;-83
2021/11/19 01:53:54;;;;;;;1999.90;999.90;;;3.40;99.90;;;;;;5116519;28;20032;-86
2021/11/19 01:56:34;;;;;;;1999.90;999.90;;;3.40;99.90;;;;;;5117599;28;20110;-83
2021/11/19 01:59:24;;;;;;;1999.90;999.90;;;3.40;99.90;;;;;;5117480;28;20451;-85
2021/11/19 02:02:24;;;;;;;1999.90;999.90;;;3.40;99.90;;;;;;5115922;28;20393;-86
2021/11/19 02:04:57;;;;;;;1999.90;999.90;;;3.40;99.90;;;;;;5091941;28;20038;-85
2021/11/19 02:07:28;;;;;;;1999.90;999.90;;;3.40;99.90;;;;;;5116104;28;20612;-85
2021/11/19 02:10:10;;;;;;;1999.90;999.90;;;3.50;99.90;;;;;;5115007;28;20020;-85
2021/11/19 02:13:03;;;;;;;1999.90;999.90;;;3.40;99.90;;;;;;5114460;28;20028;-84
2021/11/19 02:15:38;;;;;;;1999.90;999.90;;;3.40;99.90;;;;;;5114859;28;20527;-83
2021/11/19 02:18:15;;;;;;;1999.90;999.90;;;3.50;99.90;;;;;;5115282;28;20024;-83
2021/11/19 02:20:44;;;;;;;1999.90;999.90;;;3.50;99.90;;;;;;5115825;28;20023;-84
2021/11/19 02:23:44;;;;;;;1999.90;999.90;;;3.60;99.90;;;;;;5115097;28;20083;-86
2021/11/19 02:26:18;;;;;;;1999.90;999.90;;;3.60;99.90;;;;;;5104413;28;20027;-85
2021/11/19 02:28:46;;;;;;;1999.90;999.90;;;3.60;99.90;;;;;;5115683;28;20016;-83
2021/11/19 02:31:20;;;;;;;1999.90;999.90;;;3.60;99.90;;;;;;5115215;28;20031;-86
2021/11/19 02:33:50;;;;;;;1999.90;999.90;;;3.60;99.90;;;;;;5115566;28;20084;-85
2021/11/19 02:36:20;;;;;;;1999.90;999.90;;;3.70;99.90;;;;;;5115315;28;20023;-85
2021/11/19 02:39:21;;;;;;;1999.90;999.90;;;3.70;99.90;;;;;;5116824;28;20030;-85
2021/11/19 02:41:51;;;;;;;1999.90;999.90;;;3.70;99.90;;;;;;5107309;28;20063;-86
2021/11/19 02:44:20;;;;;;;1999.90;999.90;;;3.70;99.90;;;;;;5115279;28;20531;-85
2021/11/19 02:46:51;;;;;;;1999.90;999.90;;;3.70;99.90;;;;;;5115118;28;20036;-84
2021/11/19 02:49:17;;;;;;;1999.90;999.90;;;3.80;99.90;;;;;;5116189;28;20480;-84
2021/11/19 02:51:45;;;;;;;1999.90;999.90;;;3.90;99.90;;;;;;5115069;28;20032;-87
2021/11/19 02:54:13;;;;;;;1999.90;999.90;;;3.80;99.90;;;;;;5115095;28;20459;-84
2021/11/19 02:56:39;;;;;;;1999.90;999.90;;;3.90;99.90;;;;;;5115141;28;20417;-84
2021/11/19 02:59:08;;;;;;;1999.90;999.90;;;3.90;99.90;;;;;;5116068;28;20107;-85
2021/11/19 03:01:44;;;;;;;1999.90;999.90;;;4.00;99.90;;;;;;5114328;28;20051;-84
2021/11/19 03:04:30;;;;;;;1999.90;999.90;;;3.90;99.90;;;;;;5115061;28;20110;-85
2021/11/19 03:06:57;;;;;;;1999.90;999.90;;;3.90;99.90;;;;;;5114086;28;20032;-85
2021/11/19 03:09:27;;;;;;;1999.90;999.90;;;3.90;99.90;;;;;;5115231;28;20028;-85
2021/11/19 03:11:53;;;;;;;1999.90;999.90;;;3.90;99.90;;;;;;5115001;28;20027;-83
2021/11/19 03:14:21;;;;;;;1999.90;999.90;;;4.10;99.90;;;;;;5114874;28;20026;-83
2021/11/19 03:16:48;;;;;;;1999.90;999.90;;;4.10;99.90;;;;;;5115714;28;20028;-85
2021/11/19 03:19:15;;;;;;;1999.90;999.90;;;4.00;99.90;;;;;;5114557;28;20111;-83
2021/11/19 03:21:41;;;;;;;1999.90;999.90;;;4.10;99.90;;;;;;5114857;28;20015;-86
2021/11/19 03:24:08;;;;;;;1999.90;999.90;;;4.20;99.90;;;;;;5114735;28;20031;-84
2021/11/19 03:26:34;;;;;;;1999.90;999.90;;;4.10;99.90;;;;;;5114661;28;20032;-84
2021/11/19 03:29:03;;;;;;;1999.90;999.90;;;4.20;99.90;;;;;;5114678;28;20020;-85
2021/11/19 03:31:28;;;;;;;1999.90;999.90;;;4.20;99.90;;;;;;5114662;28;20034;-84
2021/11/19 03:33:54;;;;;;;1999.90;999.90;;;4.20;99.90;;;;;;5114508;28;20024;-85
2021/11/19 03:36:22;;;;;;;1999.90;999.90;;;4.20;99.90;;;;;;5115856;28;20091;-85
2021/11/19 03:38:51;;;;;;;1999.90;999.90;;;4.20;99.90;;;;;;5114873;28;20026;-86
2021/11/19 03:41:20;;;;;;;1999.90;999.90;;;4.30;99.90;;;;;;5116233;28;20032;-85
2021/11/19 03:43:54;;;;;;;1999.90;999.90;;;4.30;99.90;;;;;;5115736;28;20051;-85
2021/11/19 03:46:25;;;;;;;1999.90;999.90;;;4.20;99.90;;;;;;5114622;28;20024;-85
2021/11/19 03:48:51;;;;;;;1999.90;999.90;;;4.20;99.90;;;;;;5114737;28;20024;-85
2021/11/19 03:51:48;;;;;;;1999.90;999.90;;;4.10;99.90;;;;;;5114552;28;20069;-83
2021/11/19 03:54:16;;;;;;;1999.90;999.90;;;4.20;99.90;;;;;;5115021;28;20059;-87
2021/11/19 03:56:43;;;;;;;1999.90;999.90;;;4.20;99.90;;;;;;5115353;28;20024;-85
2021/11/19 03:59:10;;;;;;;1999.90;999.90;;;4.30;99.90;;;;;;5114815;28;20024;-86
2021/11/19 04:01:39;;;;;;;1999.90;999.90;;;4.20;99.90;;;;;;5114598;28;20406;-84
2021/11/19 04:04:07;;;;;;;1999.90;999.90;;;4.30;99.90;;;;;;5114303;28;20387;-84
2021/11/19 04:06:34;;;;;;;1999.90;999.90;;;4.30;99.90;;;;;;5116202;28;20058;-86
2021/11/19 04:09:00;;;;;;;1999.90;999.90;;;4.20;99.90;;;;;;5118604;28;20020;-86
2021/11/19 04:11:27;;;;;;;1999.90;999.90;;;4.20;99.90;;;;;;5118601;28;20035;-84
2021/11/19 04:13:53;;;;;;;1999.90;999.90;;;4.10;99.90;;;;;;5119052;27;20032;-86
2021/11/19 04:16:26;;;;;;;1999.90;999.90;;;4.00;99.90;;;;;;5118933;27;20107;-85
2021/11/19 04:18:52;;;;;;;1999.90;999.90;;;4.20;99.90;;;;;;5118240;28;20055;-86
2021/11/19 04:21:19;;;;;;;1999.90;999.90;;;4.20;99.90;;;;;;5117806;28;20027;-84
2021/11/19 04:23:47;;;;;;;1999.90;999.90;;;4.20;99.90;;;;;;5117803;28;20051;-85
2021/11/19 04:26:14;;;;;;;1999.90;999.90;;;4.20;99.90;;;;;;5117835;28;20051;-85
2021/11/19 04:28:40;;;;;;;1999.90;999.90;;;4.20;99.90;;;;;;5119173;28;20047;-84
2021/11/19 04:31:07;;;;;;;1999.90;999.90;;;4.10;99.90;;;;;;5117705;28;20028;-84
2021/11/19 04:33:33;;;;;;;1999.90;999.90;;;4.10;99.90;;;;;;5117557;28;20024;-83
2021/11/19 04:35:59;;;;;;;1999.90;999.90;;;4.10;99.90;;;;;;5117709;28;20460;-87
2021/11/19 04:38:26;;;;;;;1999.90;999.90;;;4.20;99.90;;;;;;5117651;28;20096;-84
2021/11/19 04:40:54;;;;;;;1999.90;999.90;;;4.20;99.90;;;;;;5117686;28;20019;-84
2021/11/19 04:43:22;;;;;;;1999.90;999.90;;;4.20;99.90;;;;;;5117671;28;20031;-84
2021/11/19 04:45:49;;;;;;;1999.90;999.90;;;4.30;99.90;;;;;;5117112;28;20023;-84
2021/11/19 04:48:15;;;;;;;1999.90;999.90;;;4.20;99.90;;;;;;5117248;28;20095;-85
2021/11/19 04:50:49;;;;;;;1999.90;999.90;;;4.20;99.90;;;;;;5117590;28;20028;-85
2021/11/19 04:53:18;;;;;;;1999.90;999.90;;;4.20;99.90;;;;;;5117441;28;20027;-84
2021/11/19 04:55:44;;;;;;;1999.90;999.90;;;4.20;99.90;;;;;;5117461;28;20388;-83
2021/11/19 04:58:10;;;;;;;1999.90;999.90;;;4.30;99.90;;;;;;5117325;28;20413;-82
2021/11/19 05:00:44;;;;;;;1999.90;999.90;;;4.30;99.90;;;;;;5117145;28;20027;-86
2021/11/19 05:03:11;;;;;;;1999.90;999.90;;;4.30;99.90;;;;;;5118241;28;20031;-85
2021/11/19 05:05:39;;;;;;;1999.90;999.90;;;4.30;99.90;;;;;;5118162;28;20035;-84
2021/11/19 05:08:05;;;;;;;1999.90;999.90;;;4.30;99.90;;;;;;5117371;28;20136;-85
2021/11/19 05:10:33;;;;;;;1999.90;999.90;;;4.40;99.90;;;;;;5117345;28;20080;-83
2021/11/19 05:13:00;;;;;;;1999.90;999.90;;;4.40;99.90;;;;;;5116766;28;20078;-86
2021/11/19 05:15:28;;;;;;;1999.90;999.90;;;4.20;99.90;;;;;;5116879;28;20047;-84
2021/11/19 05:17:54;;;;;;;1999.90;999.90;;;4.30;99.90;;;;;;5116834;28;20103;-85
2021/11/19 05:20:22;;;;;;;1999.90;999.90;;;4.30;99.90;;;;;;5116553;28;20176;-83
2021/11/19 05:22:48;;;;;;;1999.90;999.90;;;4.30;99.90;;;;;;5118215;28;20482;-87
2021/11/19 05:25:17;;;;;;;1999.90;999.90;;;4.40;99.90;;;;;;5116522;28;20536;-83
2021/11/19 05:27:44;;;;;;;1999.90;999.90;;;4.40;99.90;;;;;;5117890;28;20130;-86
2021/11/19 05:30:11;;;;;;;1999.90;999.90;;;4.40;99.90;;;;;;5117842;27;20408;-83
2021/11/19 05:32:37;;;;;;;1999.90;999.90;;;4.30;99.90;;;;;;5116520;28;20042;-87
2021/11/19 05:35:04;;;;;;;1999.90;999.90;;;4.30;99.90;;;;;;5116920;28;20408;-83
2021/11/19 05:37:30;;;;;;;1999.90;999.90;;;4.30;99.90;;;;;;5116473;28;20020;-86
2021/11/19 05:39:55;;;;;;;1999.90;999.90;;;4.30;99.90;;;;;;5117761;28;20030;-85
2021/11/19 05:42:21;;;;;;;1999.90;999.90;;;4.30;99.90;;;;;;5117445;28;20481;-85
2021/11/19 05:44:47;;;;;;;1999.90;999.90;;;4.30;99.90;;;;;;5116177;28;20382;-83
2021/11/19 05:47:12;;;;;;;1999.90;999.90;;;4.30;99.90;;;;;;5117784;28;20023;-84
2021/11/19 05:49:39;;;;;;;1999.90;999.90;;;4.40;99.90;;;;;;5116810;28;20019;-86
2021/11/19 05:52:07;;;;;;;1999.90;999.90;;;4.40;99.90;;;;;;5116313;28;20035;-84
2021/11/19 05:54:35;;;;;;;1999.90;999.90;;;4.40;99.90;;;;;;5116782;28;20486;-86
2021/11/19 05:57:02;;;;;;;1999.90;999.90;;;4.40;99.90;;;;;;5117581;28;20124;-86
2021/11/19 05:59:28;;;;;;;1999.90;999.90;;;4.40;99.90;;;;;;5116349;28;20023;-86
2021/11/19 06:01:54;;;;;;;1999.90;999.90;;;4.40;99.90;;;;;;5116915;28;20048;-83
2021/11/19 06:04:20;;;;;;;1999.90;999.90;;;4.40;99.90;;;;;;5115711;28;20016;-83
2021/11/19 06:06:46;;;;;;;1999.90;999.90;;;4.40;99.90;;;;;;5116433;28;20074;-83
2021/11/19 06:09:20;;;;;;;1999.90;999.90;;;4.40;99.90;;;;;;5114094;28;20516;-81
2021/11/19 06:11:52;;;;;;;1999.90;999.90;;;4.40;99.90;;;;;;5116034;28;20038;-85
2021/11/19 06:14:26;;;;;;;1999.90;999.90;;;4.50;99.90;;;;;;5114088;28;20027;-83
2021/11/19 06:16:55;;;;;;;1999.90;999.90;;;5.20;99.90;;;;;;5114733;28;20074;-86
2021/11/19 06:19:31;;;;;;;1999.90;999.90;;;5.00;99.90;;;;;;5117630;28;20023;-86
2021/11/19 06:22:11;;;;;;;1999.90;999.90;;;4.80;99.90;;;;;;5115424;28;20463;-86
2021/11/19 06:24:40;;;;;;;1999.90;999.90;;;4.70;99.90;;;;;;5114591;28;20735;-83
2021/11/19 06:27:08;;;;;;;1999.90;999.90;;;4.50;99.90;;;;;;5114438;28;20052;-85
2021/11/19 06:29:33;;;;;;;1999.90;999.90;;;4.40;99.90;;;;;;5113544;28;20024;-87
2021/11/19 06:32:00;;;;;;;1999.90;999.90;;;4.30;99.90;;;;;;5114059;28;20040;-85
2021/11/19 06:34:26;;;;;;;1999.90;999.90;;;4.20;99.90;;;;;;5113970;28;20109;-83
2021/11/19 06:36:52;;;;;;;1999.90;999.90;;;4.10;99.90;;;;;;5114365;28;20081;-84
2021/11/19 06:39:19;;;;;;;1999.90;999.90;;;4.10;99.90;;;;;;5114275;28;20020;-84
2021/11/19 06:41:45;;;;;;;1999.90;999.90;;;4.00;99.90;;;;;;5115318;28;20080;-84
2021/11/19 06:44:12;;;;;;;1999.90;999.90;;;3.90;99.90;;;;;;5114503;28;20030;-83
2021/11/19 06:46:40;;;;;;;1999.90;999.90;;;4.00;99.90;;;;;;5115222;27;20454;-83
2021/11/19 06:49:06;;;;;;;1999.90;999.90;;;4.00;99.90;;;;;;5114251;28;20019;-84
2021/11/19 06:51:33;;;;;;;1999.90;999.90;;;4.00;99.90;;;;;;5114094;28;20032;-84
2021/11/19 06:53:58;;;;;;;1999.90;999.90;;;4.00;99.90;;;;;;5114206;28;20378;-83
2021/11/19 06:56:24;;;;;;;1999.90;999.90;;;4.00;99.90;;;;;;5115053;28;20487;-84
2021/11/19 06:58:50;;;;;;;1999.90;999.90;;;4.10;99.90;;;;;;5114072;28;20528;-85
2021/11/19 07:01:18;;;;;;;1999.90;999.90;;;4.00;99.90;;;;;;5114656;28;20096;-83
2021/11/19 07:03:44;;;;;;;1999.90;999.90;;;4.00;99.90;;;;;;5113681;28;20019;-84
2021/11/19 07:06:11;;;;;;;1999.90;999.90;;;4.00;99.90;;;;;;5113619;28;20024;-84
2021/11/19 07:08:38;;;;;;;1999.90;999.90;;;4.00;99.90;;;;;;5113620;28;20111;-85
2021/11/19 07:11:07;;;;;;;1999.90;999.90;;;4.00;99.90;;;;;;5113868;28;20027;-84
2021/11/19 07:13:33;;;;;;;1999.90;999.90;;;4.00;99.90;;;;;;5113868;28;20095;-86
2021/11/19 07:15:59;;;;;;;1999.90;999.90;;;4.10;99.90;;;;;;5113695;28;20110;-83
2021/11/19 07:18:25;;;;;;;1999.90;999.90;;;4.10;99.90;;;;;;5113642;28;20386;-84
2021/11/19 07:20:52;;;;;;;1999.90;999.90;;;4.10;99.90;;;;;;5114054;28;20027;-83
2021/11/19 07:23:19;;;;;;;1999.90;999.90;;;4.20;99.90;;;;;;5113584;28;20042;-84
2021/11/19 07:25:45;;;;;;;1999.90;999.90;;;4.20;99.90;;;;;;5114631;28;20016;-85
2021/11/19 07:28:11;;;;;;;1999.90;999.90;;;4.40;99.90;;;;;;5113822;28;20023;-81
2021/11/19 07:30:51;;;;;;;1999.90;999.90;;;4.50;99.90;;;;;;5113382;28;20039;-82
2021/11/19 07:33:18;;;;;;;1999.90;999.90;;;4.50;99.90;;;;;;5113390;28;20036;-83
2021/11/19 07:35:46;;;;;;;1999.90;999.90;;;4.60;99.90;;;;;;5113336;28;20021;-84
2021/11/19 07:38:12;;;;;;;1999.90;999.90;;;4.70;99.90;;;;;;5113632;28;20473;-85
2021/11/19 07:40:41;;;;;;;1999.90;999.90;;;4.80;99.90;;;;;;5115364;28;20027;-86
2021/11/19 07:43:07;;;;;;;1999.90;999.90;;;4.90;99.90;;;;;;5119113;28;20028;-86
2021/11/19 07:45:36;;;;;;;1999.90;999.90;;;4.90;99.90;;;;;;5118873;28;20019;-85
2021/11/19 07:48:14;;;;;;;1999.90;999.90;;;5.00;99.90;;;;;;5118852;28;20016;-86
2021/11/19 07:50:43;;;;;;;1999.90;999.90;;;5.00;99.90;;;;;;5118330;28;20023;-85
2021/11/19 07:53:10;;;;;;;1999.90;999.90;;;5.00;99.90;;;;;;5119777;28;20103;-84
2021/11/19 07:55:36;;;;;;;1999.90;999.90;;;5.10;99.90;;;;;;5118141;28;20072;-86
2021/11/19 07:58:04;;;;;;;1999.90;999.90;;;5.10;99.90;;;;;;5118555;28;20394;-86
2021/11/19 08:00:32;;;;;;;1999.90;999.90;;;5.20;99.90;;;;;;5118443;28;20020;-84
2021/11/19 08:02:58;;;;;;;1999.90;999.90;;;5.20;99.90;;;;;;5118024;28;20043;-85
2021/11/19 08:05:24;;;;;;;1999.90;999.90;;;5.30;99.90;;;;;;5117813;28;20111;-85
2021/11/19 08:07:50;;;;;;;1999.90;999.90;;;5.30;99.90;;;;;;5118712;28;20027;-83
2021/11/19 08:10:16;;;;;;;1999.90;999.90;;;5.40;99.90;;;;;;5118272;28;20024;-84
2021/11/19 08:12:42;;;;;;;1999.90;999.90;;;5.50;99.90;;;;;;5118627;28;20114;-85
2021/11/19 08:15:09;;;;;;;1999.90;999.90;;;5.50;99.90;;;;;;5117746;28;20020;-83
2021/11/19 08:17:44;;;;;;;1999.90;999.90;;;5.60;99.90;;;;;;5117804;28;20047;-82
2021/11/19 08:20:15;;;;;;;1999.90;999.90;;;5.60;99.90;;;;;;5117666;28;20481;-83
2021/11/19 08:22:41;;;;;;;1999.90;999.90;;;5.70;99.90;;;;;;5117159;28;20112;-85
2021/11/19 08:25:09;;;;;;;1999.90;999.90;;;5.70;99.90;;;;;;5117097;28;20053;-84
2021/11/19 08:27:41;;;;;;;1999.90;999.90;;;5.70;99.90;;;;;;5116942;28;20546;-84
2021/11/19 08:30:11;;;;;;;1999.90;999.90;;;5.80;99.90;;;;;;5117138;28;20374;-84
2021/11/19 08:32:37;;;;;;;1999.90;999.90;;;5.90;99.90;;;;;;5116704;28;20032;-84
2021/11/19 08:35:04;;;;;;;1999.90;999.90;;;6.00;99.90;;;;;;5116757;28;20923;-85
2021/11/19 08:37:31;;;;;;;1999.90;999.90;;;8.10;99.90;;;;;;5116608;28;20035;-84
2021/11/19 08:39:58;;;;;;;1999.90;999.90;;;7.80;99.90;;;;;;5116924;28;20019;-85
2021/11/19 08:42:25;;;;;;;1999.90;999.90;;;7.50;99.90;;;;;;5115209;28;20047;-73
2021/11/19 08:44:51;;;;;;;1999.90;999.90;;;7.40;99.90;;;;;;5115661;28;20028;-75
2021/11/19 08:47:19;;;;;;;1999.90;999.90;;;7.40;99.90;;;;;;5115495;28;20015;-84
2021/11/19 08:49:46;;;;;;;1999.90;999.90;;;7.40;99.90;;;;;;5117045;28;20030;-86
2021/11/19 08:52:15;;;;;;;1999.90;999.90;;;7.40;99.90;;;;;;5115515;28;20036;-86
2021/11/19 08:54:41;;;;;;;1999.90;999.90;;;7.40;99.90;;;;;;5116386;28;20515;-85
2021/11/19 08:57:11;;;;;;;1999.90;999.90;;;7.30;99.90;;;;;;5116106;28;20051;-86
2021/11/19 08:59:40;;;;;;;1999.90;999.90;;;7.30;99.90;;;;;;5116022;28;20474;-86
2021/11/19 09:02:10;;;;;;;1999.90;999.90;;;7.30;99.90;;;;;;5115928;28;20050;-84
2021/11/19 09:04:35;;;;;;;1999.90;999.90;;;8.00;99.90;;;;;;5115921;28;20046;-85
2021/11/19 09:07:02;;;;;;;1999.90;999.90;;;7.80;99.90;;;;;;5116504;28;20027;-85
2021/11/19 09:09:29;;;;;;;1999.90;999.90;;;7.70;99.90;;;;;;5115730;28;20031;-83
2021/11/19 09:11:55;;;;;;;1999.90;999.90;;;7.70;99.90;;;;;;5115718;28;20032;-82
2021/11/19 09:14:21;;;;;;;1999.90;999.90;;;7.70;99.90;;;;;;5114780;28;20384;-82
2021/11/19 09:17:29;;;;;;;1999.90;999.90;;;7.80;99.90;;;;;;5114770;28;20023;-84
2021/11/19 09:20:07;;;;;;;1999.90;999.90;;;7.90;99.90;;;;;;5115666;28;20034;-87
2021/11/19 09:22:45;;;;;;;1999.90;999.90;;;7.90;99.90;;;;;;5115328;28;20027;-86
2021/11/19 09:25:13;;;;;;;1999.90;999.90;;;8.00;99.90;;;;;;5115621;28;20432;-85
2021/11/19 09:27:40;;;;;;;1999.90;999.90;;;8.10;99.90;;;;;;5115771;28;20390;-85
2021/11/19 09:30:29;;;;;;;1999.90;999.90;;;8.20;99.90;;;;;;5115458;28;20113;-85
2021/11/19 09:32:57;;;;;;;1999.90;999.90;;;8.30;99.90;;;;;;5115481;28;20023;-86
2021/11/19 09:35:26;;;;;;;1999.90;999.90;;;8.30;99.90;;;;;;5115119;28;20073;-86
2021/11/19 09:37:52;;;;;;;1999.90;999.90;;;8.40;99.90;;;;;;5115097;28;20045;-87
2021/11/19 09:40:27;;;;;;;1999.90;999.90;;;8.50;99.90;;;;;;5115371;28;20076;-84
2021/11/19 09:43:11;;;;;;;1999.90;999.90;;;8.50;99.90;;;;;;5115621;28;20031;-84
2021/11/19 09:46:14;;;;;;;1999.90;999.90;;;8.60;99.90;;;;;;5117099;28;20036;-87
2021/11/19 09:48:50;;;;;;;1999.90;999.90;;;8.70;99.90;;;;;;5116831;28;20111;-86
2021/11/19 09:52:10;;;;;;;1999.90;999.90;;;8.90;99.90;;;;;;5116207;28;20487;-81
2021/11/19 09:55:12;;;;;;;1999.90;999.90;;;9.10;99.90;;;;;;5053965;28;20033;-79
2021/11/19 09:58:08;;;;;;;1999.90;999.90;;;9.30;99.90;;;;;;5112736;28;20028;-80
2021/11/19 10:01:15;;;;;;;1999.90;999.90;;;9.40;99.90;;;;;;5112801;28;20015;-79
2021/11/19 10:04:18;;;;;;;1999.90;999.90;;;9.50;99.90;;;;;;5111089;28;20073;-79
2021/11/19 10:06:55;;;;;;;1999.90;999.90;;;9.70;99.90;;;;;;5112627;28;20966;-80
2021/11/19 10:09:30;;;;;;;1999.90;999.90;;;9.90;99.90;;;;;;5112324;28;20442;-80
2021/11/19 10:12:08;;;;;;;1999.90;999.90;;;10.00;99.90;;;;;;5113499;28;20035;-79
2021/11/19 10:14:42;;;;;;;1999.90;999.90;;;10.20;99.90;;;;;;5112489;28;20487;-80
2021/11/19 10:17:41;;;;;;;1999.90;999.90;;;10.30;99.90;;;;;;5111859;28;20079;-79
2021/11/19 10:20:09;;;;;;;1999.90;999.90;;;10.40;99.90;;;;;;5113535;28;20023;-78
2021/11/19 10:22:52;;;;;;;1999.90;999.90;;;10.50;99.90;;;;;;5114477;28;20046;-82
2021/11/19 10:25:50;;;;;;;1999.90;999.90;;;10.70;99.90;;;;;;5112312;28;20034;-79
2021/11/19 10:28:35;;;;;;;1999.90;999.90;;;10.80;99.30;;;;;;5113576;28;20367;-78
2021/11/19 10:31:01;;;;;;;1999.90;999.90;;;11.00;98.20;;;;;;5113354;28;20097;-78
2021/11/19 10:34:02;;;;;;;1999.90;999.90;;;11.10;98.10;;;;;;5112230;28;20024;-76
2021/11/19 10:36:34;;;;;;;1999.90;999.90;;;11.20;98.00;;;;;;5111849;28;20020;-80
2021/11/19 10:39:11;;;;;;;1999.90;999.90;;;11.30;97.50;;;;;;5113186;28;20030;-80
2021/11/19 10:41:58;;;;;;;1999.90;999.90;;;11.40;97.20;;;;;;5113137;28;20030;-78
2021/11/19 10:44:50;;;;;;;1999.90;999.90;;;11.50;97.00;;;;;;5113004;28;20043;-79
2021/11/19 10:47:53;;;;;;;1999.90;999.90;;;11.60;96.20;;;;;;5112934;28;20024;-80
2021/11/19 10:50:28;;;;;;;1999.90;999.90;;;11.70;96.10;;;;;;5111794;28;20019;-80
2021/11/19 10:53:02;;;;;;;1999.90;999.90;;;11.80;95.20;;;;;;5111584;28;20028;-78
2021/11/19 10:55:47;;;;;;;1999.90;999.90;;;11.80;95.50;;;;;;5112941;28;20092;-80
2021/11/19 10:58:13;;;;;;;1999.90;999.90;;;11.90;94.50;;;;;;5113197;28;20108;-81
2021/11/19 11:01:00;;;;;;;1999.90;999.90;;;12.00;95.00;;;;;;5111625;28;20041;-79
2021/11/19 11:03:34;;;;;;;1999.90;999.90;;;12.00;94.40;;;;;;5113007;28;20023;-81
2021/11/19 11:06:10;;;;;;;1999.90;999.90;;;12.10;93.50;;;;;;5111882;28;20077;-79
2021/11/19 11:08:42;;;;;;;1999.90;999.90;;;12.10;93.40;;;;;;5111766;28;20027;-80
2021/11/19 11:11:30;;;;;;;1999.90;999.90;;;12.10;93.20;;;;;;5111393;28;20452;-78
2021/11/19 11:14:01;;;;;;;1999.90;999.90;;;12.10;93.00;;;;;;5112769;28;20020;-78
2021/11/19 11:16:37;;;;;;;1999.90;999.90;;;12.20;92.50;;;;;;5118294;28;20026;-78
2021/11/19 11:19:12;;;;;;;1999.90;999.90;;;12.20;92.50;;;;;;5118299;28;20018;-78
2021/11/19 11:21:50;;;;;;;1999.90;999.90;;;12.30;92.60;;;;;;5119292;27;20132;-78
2021/11/19 11:24:35;;;;;;;1999.90;999.90;;;12.30;91.80;;;;;;5119345;27;20015;-78
2021/11/19 11:27:35;;;;;;;1999.90;999.90;;;12.40;91.50;;;;;;5119557;27;20019;-79
2021/11/19 11:30:17;;;;;;;1999.90;999.90;;;12.50;92.00;;;;;;5117979;28;20023;-74
2021/11/19 11:33:31;;;;;;;1999.90;999.90;;;12.60;91.70;;;;;;5119420;27;20043;-73
2021/11/19 11:36:08;;;;;;;1999.90;999.90;;;12.70;91.20;;;;;;5118197;28;20039;-79
2021/11/19 11:39:18;;;;;;;1999.90;999.90;;;12.80;91.40;;;;;;5119217;27;20099;-79
2021/11/19 11:41:46;;;;;;;1999.90;999.90;;;13.00;90.70;;;;;;5116974;28;20482;-79
2021/11/19 11:44:47;;;;;;;1999.90;999.90;;;13.00;90.10;;;;;;5117779;28;20131;-78
2021/11/19 11:47:18;;;;;;;1999.90;999.90;;;13.00;90.00;;;;;;5118178;28;20379;-77
2021/11/19 11:49:53;;;;;;;1999.90;999.90;;;13.10;90.10;;;;;;5118151;27;20123;-79
2021/11/19 11:52:24;;;;;;;1999.90;999.90;;;13.10;89.20;;;;;;5119210;27;20046;-79
2021/11/19 11:54:59;;;;;;;1999.90;999.90;;;13.20;88.50;;;;;;5117879;28;20112;-78
2021/11/19 11:58:02;;;;;;;1999.90;999.90;;;13.30;86.60;;;;;;5119355;27;20023;-77
2021/11/19 12:00:56;;;;;;;1999.90;999.90;;;13.30;87.70;;;;;;5118153;28;20035;-80
2021/11/19 12:03:57;;;;;;;1999.90;999.90;;;13.30;86.60;;;;;;5119148;27;20035;-78
2021/11/19 12:06:44;;;;;;;1999.90;999.90;;;13.30;86.20;;;;;;5117589;28;20087;-79
2021/11/19 12:09:18;;;;;;;1999.90;999.90;;;13.40;85.80;;;;;;5117651;28;20028;-77
2021/11/19 12:12:18;;;;;;;1999.90;999.90;;;13.40;85.20;;;;;;5118910;27;20032;-79
2021/11/19 12:15:13;;;;;;;1999.90;999.90;;;13.40;85.50;;;;;;5117517;28;20023;-79
2021/11/19 12:17:46;;;;;;;1999.90;999.90;;;13.30;85.90;;;;;;5118285;28;20478;-80
2021/11/19 12:20:18;;;;;;;1999.90;999.90;;;13.30;86.50;;;;;;5118556;27;20030;-80
2021/11/19 12:22:44;;;;;;;1999.90;999.90;;;13.20;88.20;;;;;;5118471;27;20028;-80
2021/11/19 12:25:31;;;;;;;1999.90;999.90;;;13.10;89.60;;;;;;5118604;27;20030;-79
2021/11/19 12:28:00;;;;;;;1999.90;999.90;;;13.20;90.20;;;;;;5114371;28;20061;-79
2021/11/19 12:30:29;;;;;;;1999.90;999.90;;;13.20;92.10;;;;;;5114141;28;20026;-79
2021/11/19 12:33:20;;;;;;;1999.90;999.90;;;13.30;92.60;;;;;;5115263;28;20050;-78